Terminal Aerodrome Forecast
Issued by NWS Pocatello, ID

Home | Current Version | Previous Version | Text Only | Print | Product List | Glossary On
Versions: 1 2 3 4 5 6 7 8 9 10 11 12 13 14 15 16 17 18 19 20 21 22 23 24 25
000
FTUS45 KPIH 170831 AAA
TAFIDA
TAF AMD
KIDA 170831Z 1709/1806 24005KT 1/2SM FZFG VV002
     FM171900 21006KT 4SM BR OVC008
     FM180200 VRB03KT 6SM BR SCT008 BKN070=

USA.gov is the U.S. government's official web portal to all federal, state and local government web resources and services.